Aviation Digital Data Service (ADDS)

Output produced by METARs form (1016 UTC 19 November 2018)
found at http://www.aviationweather.gov/metar/data/
 
METAR text: RJNT 191000Z VRB01KT 9999 -SHRA FEW010 SCT020 BKN030 10/08 Q1019
Conditions at: RJNT (TOYAMA AIRPORT , JP) observed 1000 UTC 19 November 2018
Temperature: 10.0°C (50°F)
Dewpoint: 8.0°C (46°F) [RH = 87%]
Pressure (altimeter): 30.09 inches Hg (1019.0 mb)
Winds: variable direction winds at 1 MPH (1 knots; 0.5 m/s)
Visibility: 6 or more miles (10+ km)
Ceiling: 3000 feet AGL
Clouds: few clouds at 1000 feet AGL
scattered clouds at 2000 feet AGL
broken clouds at 3000 feet AGL
Weather: -SHRA  (light rain showers)

Forecast for: RJNT (TOYAMA AIRPORT , JP)
Text: TAF RJNT 190506Z 1906/2012 22004KT 9999 FEW010 BKN030
Forecast period: 0600 UTC 19 November 2018 to 1200 UTC 20 November 2018
Forecast type: FROM: standard forecast or significant change
Winds: from the SW (220 degrees) at 5 MPH (4 knots; 2.1 m/s)
Visibility: 6 or more miles 10+ km)
Ceiling: 3000 feet AGL
Clouds: few clouds at 1000 feet AGL
broken clouds at 3000 feet AGL
Weather: no significant weather forecast for this period